createdAt,value
2023-01-11T00:02:40.129Z,1.17
2023-01-11T00:05:43.419Z,0.82
2023-01-11T00:08:46.137Z,1.10
2023-01-11T00:11:47.722Z,0.50
2023-01-11T00:14:49.352Z,0.70
2023-01-11T00:17:50.967Z,0.85
2023-01-11T00:20:52.578Z,0.60
2023-01-11T00:23:54.133Z,0.60
2023-01-11T00:26:55.805Z,0.80
2023-01-11T00:29:57.553Z,0.82
2023-01-11T00:33:00.058Z,0.90
2023-01-11T00:36:01.784Z,0.80
2023-01-11T00:39:03.457Z,0.88
2023-01-11T00:42:23.867Z,0.75
2023-01-11T00:45:43.809Z,0.60
2023-01-11T00:48:45.395Z,0.43
2023-01-11T00:51:47.811Z,0.47
2023-01-11T00:54:49.603Z,0.43
2023-01-11T00:57:51.653Z,0.77
2023-01-11T01:00:53.167Z,0.90
2023-01-11T01:03:54.764Z,0.45
2023-01-11T01:06:56.554Z,0.50
2023-01-11T01:09:58.183Z,0.65
2023-01-11T01:13:18.140Z,0.50
2023-01-11T01:16:19.866Z,0.90
2023-01-11T01:19:22.521Z,0.70
2023-01-11T01:22:24.073Z,0.50
2023-01-11T01:25:25.748Z,0.50
2023-01-11T01:28:27.306Z,0.63
2023-01-11T01:31:28.863Z,0.35
2023-01-11T01:34:30.487Z,0.38
2023-01-11T01:37:32.011Z,0.40
2023-01-11T01:40:33.610Z,0.45
2023-01-11T01:43:53.470Z,0.25
2023-01-11T01:46:55.078Z,0.80
2023-01-11T01:49:59.157Z,0.50
2023-01-11T01:56:30.274Z,0.60
2023-01-11T01:59:33.105Z,0.80
2023-01-11T02:02:37.401Z,0.70
2023-01-11T02:05:39.016Z,0.40
2023-01-11T02:08:44.100Z,0.55
2023-01-11T02:11:45.758Z,0.60
2023-01-11T02:14:49.062Z,0.60
2023-01-11T02:17:51.103Z,0.40
2023-01-11T02:21:14.103Z,0.82
2023-01-11T02:24:56.501Z,0.55
2023-01-11T02:28:01.318Z,0.60
2023-01-11T02:31:16.474Z,0.38
2023-01-11T02:34:34.180Z,0.63
2023-01-11T02:37:49.046Z,0.60
2023-01-11T02:41:05.985Z,0.50
2023-01-11T02:44:32.714Z,0.50
2023-01-11T02:47:43.992Z,0.50
2023-01-11T02:51:39.547Z,0.45
2023-01-11T02:57:48.091Z,0.57
2023-01-11T03:00:50.755Z,0.50
2023-01-11T03:03:53.093Z,0.38
2023-01-11T03:07:16.375Z,0.43
2023-01-11T03:10:32.585Z,0.65
2023-01-11T03:13:46.964Z,0.60
2023-01-11T03:20:31.332Z,0.40
2023-01-11T03:23:46.692Z,0.52
2023-01-11T03:27:05.755Z,0.30
2023-01-11T03:30:25.166Z,0.43
2023-01-11T03:33:37.795Z,0.57
2023-01-11T03:36:48.129Z,0.80
2023-01-11T03:40:00.661Z,0.50
2023-01-11T03:43:13.328Z,0.70
2023-01-11T03:46:20.759Z,0.22
2023-01-11T03:49:29.644Z,0.43
2023-01-11T03:52:38.655Z,0.73
2023-01-11T03:55:44.472Z,0.50
2023-01-11T03:58:45.983Z,0.55
2023-01-11T04:01:47.707Z,0.43
2023-01-11T04:04:49.284Z,0.43
2023-01-11T04:07:52.554Z,0.60
2023-01-11T04:10:54.131Z,0.53
2023-01-11T04:13:55.722Z,0.35
2023-01-11T04:16:57.883Z,0.50
2023-01-11T04:19:59.497Z,0.60
2023-01-11T04:23:01.104Z,0.40
2023-01-11T04:26:02.623Z,0.60
2023-01-11T04:29:04.232Z,0.65
2023-01-11T04:32:05.928Z,0.75
2023-01-11T04:35:07.884Z,0.60
2023-01-11T04:38:09.363Z,0.40
2023-01-11T04:41:29.580Z,0.50
2023-01-11T04:44:31.172Z,0.50
2023-01-11T04:47:32.885Z,0.50
2023-01-11T04:50:34.457Z,0.40
2023-01-11T04:53:36.552Z,0.50
2023-01-11T04:56:38.192Z,0.40
2023-01-11T04:59:39.839Z,0.30
2023-01-11T05:02:42.157Z,0.80
2023-01-11T05:05:43.760Z,0.50
2023-01-11T05:08:48.876Z,0.40
2023-01-11T05:11:50.409Z,0.73
2023-01-11T05:14:51.931Z,1.08
2023-01-11T05:17:53.613Z,1.15
2023-01-11T05:20:55.139Z,0.60
2023-01-11T05:23:58.967Z,0.40
2023-01-11T05:27:00.867Z,1.23
2023-01-11T05:30:02.421Z,1.08
2023-01-11T05:33:04.300Z,1.90
2023-01-11T05:36:08.661Z,0.35
2023-01-11T05:39:14.230Z,0.70
2023-01-11T05:42:16.717Z,0.30
2023-01-11T05:45:30.129Z,1.10
2023-01-11T05:48:31.855Z,0.57
2023-01-11T05:51:34.670Z,0.38
2023-01-11T05:54:37.179Z,0.38
2023-01-11T05:57:42.387Z,0.70
2023-01-11T06:00:43.890Z,0.30
2023-01-11T06:03:46.347Z,0.73
2023-01-11T06:06:47.903Z,0.60
2023-01-11T06:09:49.547Z,0.60
2023-01-11T06:13:13.787Z,0.77
2023-01-11T06:16:18.186Z,0.50
2023-01-11T06:19:19.792Z,0.50
2023-01-11T06:22:21.306Z,0.50
2023-01-11T06:25:22.905Z,0.40
2023-01-11T06:28:24.510Z,0.50
2023-01-11T06:31:26.228Z,0.40
2023-01-11T06:34:27.755Z,0.57
2023-01-11T06:37:29.358Z,0.40
2023-01-11T06:40:31.028Z,0.50
2023-01-11T06:43:33.016Z,0.50
2023-01-11T06:46:34.584Z,0.73
2023-01-11T06:49:36.205Z,0.40
2023-01-11T06:52:37.782Z,0.63
2023-01-11T06:55:39.399Z,0.30
2023-01-11T06:58:41.334Z,0.40
2023-01-11T07:01:43.091Z,0.85
2023-01-11T07:04:44.855Z,0.50
2023-01-11T07:07:46.589Z,0.57
2023-01-11T07:10:48.606Z,0.30
2023-01-11T07:13:50.216Z,0.82
2023-01-11T07:16:51.804Z,0.50
2023-01-11T07:19:53.365Z,0.57
2023-01-11T07:22:59.585Z,0.30
2023-01-11T07:26:01.323Z,0.70
2023-01-11T07:29:02.973Z,0.40
2023-01-11T07:32:04.909Z,0.20
2023-01-11T07:35:07.195Z,0.50
2023-01-11T07:38:10.155Z,2.35
2023-01-11T07:41:30.254Z,0.20
2023-01-11T07:44:31.785Z,0.40
2023-01-11T07:47:33.321Z,0.40
2023-01-11T07:50:34.810Z,0.40
2023-01-11T07:53:36.417Z,0.50
2023-01-11T07:56:37.950Z,0.30
2023-01-11T07:59:39.440Z,0.38
2023-01-11T08:02:41.325Z,0.30
2023-01-11T08:05:42.951Z,0.55
2023-01-11T08:08:44.686Z,0.55
2023-01-11T08:12:04.574Z,0.40
2023-01-11T08:15:06.985Z,0.20
2023-01-11T08:18:09.617Z,0.22
2023-01-11T08:21:12.428Z,0.32
2023-01-11T08:24:15.078Z,0.57
2023-01-11T08:27:16.744Z,0.70
2023-01-11T08:30:18.644Z,0.30
2023-01-11T08:34:13.600Z,0.60
2023-01-11T08:37:15.179Z,0.43
2023-01-11T08:40:16.819Z,0.30
2023-01-11T08:43:18.426Z,0.40
2023-01-11T08:46:20.316Z,0.30
2023-01-11T08:49:21.928Z,0.40
2023-01-11T08:52:23.556Z,0.40
2023-01-11T08:55:25.159Z,0.43
2023-01-11T08:58:26.765Z,0.38
2023-01-11T09:01:28.492Z,0.20
2023-01-11T09:04:30.122Z,0.17
2023-01-11T09:07:31.740Z,0.40
2023-01-11T09:10:33.920Z,0.63
2023-01-11T09:13:35.461Z,0.30
2023-01-11T09:16:37.051Z,0.63
2023-01-11T09:19:38.597Z,0.20
2023-01-11T09:22:40.383Z,0.50
2023-01-11T09:25:41.981Z,1.27
2023-01-11T09:28:43.531Z,0.45
2023-01-11T09:31:45.081Z,0.25
2023-01-11T09:34:47.270Z,0.52
2023-01-11T09:37:49.967Z,0.50
2023-01-11T09:41:16.701Z,0.63
2023-01-11T09:44:23.340Z,0.40
2023-01-11T09:47:32.893Z,0.40
2023-01-11T09:50:41.143Z,0.43
2023-01-11T09:53:49.443Z,0.60
2023-01-11T09:57:22.882Z,0.35
2023-01-11T10:00:36.751Z,0.47
2023-01-11T10:04:03.356Z,0.20
2023-01-11T10:18:39.684Z,0.40
2023-01-11T10:19:33.348Z,0.30
2023-01-11T10:22:41.865Z,0.22
2023-01-11T10:25:54.373Z,0.40
2023-01-11T10:29:22.250Z,0.22
2023-01-11T10:32:53.163Z,0.50
2023-01-11T10:36:18.891Z,0.20
2023-01-11T10:40:26.752Z,0.30
2023-01-11T10:43:31.761Z,0.50
2023-01-11T10:46:39.652Z,0.30
2023-01-11T10:50:06.630Z,0.38
2023-01-11T10:53:25.768Z,0.40
2023-01-11T10:57:02.683Z,0.50
2023-01-11T11:00:21.372Z,0.20
2023-01-11T11:04:10.488Z,0.40
2023-01-11T11:07:25.820Z,0.32
2023-01-11T11:10:45.949Z,0.38
2023-01-11T11:14:29.587Z,0.55
2023-01-11T11:17:35.167Z,0.25
2023-01-11T11:20:36.853Z,0.30
2023-01-11T11:23:39.074Z,0.55
2023-01-11T11:26:45.738Z,0.50
2023-01-11T11:29:53.032Z,0.28
2023-01-11T11:32:59.416Z,0.52
2023-01-11T11:36:07.906Z,0.60
2023-01-11T11:39:18.423Z,0.20
2023-01-11T11:42:24.147Z,0.52
2023-01-11T11:45:27.726Z,0.65
2023-01-11T11:48:33.319Z,1.00
2023-01-11T11:51:34.929Z,0.50
2023-01-11T11:54:41.698Z,0.45
2023-01-11T11:57:43.868Z,0.70
2023-01-11T12:00:49.017Z,0.43
2023-01-11T12:03:58.700Z,0.60
2023-01-11T12:07:15.125Z,0.52
2023-01-11T12:10:19.759Z,0.70
2023-01-11T12:13:33.460Z,0.45
2023-01-11T12:16:40.102Z,0.50
2023-01-11T12:19:45.211Z,0.38
2023-01-11T12:22:46.811Z,0.88
2023-01-11T12:26:18.960Z,0.50
2023-01-11T12:29:49.947Z,0.40
2023-01-11T12:32:57.705Z,0.43
2023-01-11T12:36:30.882Z,0.40
2023-01-11T12:39:50.751Z,0.63
2023-01-11T12:42:58.095Z,0.50
2023-01-11T12:46:27.436Z,0.70
2023-01-11T12:49:45.731Z,0.80
2023-01-11T12:52:49.945Z,0.63
2023-01-11T12:59:05.783Z,0.52
2023-01-11T13:02:07.378Z,0.30
2023-01-11T13:05:23.625Z,0.50
2023-01-11T13:08:55.160Z,0.50
2023-01-11T13:12:18.822Z,0.60
2023-01-11T13:15:45.055Z,0.75
2023-01-11T13:19:16.552Z,0.50
2023-01-11T13:22:23.253Z,0.70
2023-01-11T13:25:31.976Z,0.52
2023-01-11T13:28:39.312Z,0.70
2023-01-11T13:31:44.098Z,0.70
2023-01-11T13:34:55.547Z,0.60
2023-01-11T13:38:05.882Z,0.45
2023-01-11T13:41:25.708Z,0.70
2023-01-11T13:44:52.859Z,0.70
2023-01-11T13:48:00.114Z,0.80
2023-01-11T13:51:12.977Z,0.80
2023-01-11T13:54:23.120Z,0.80
2023-01-11T13:57:36.512Z,1.05
2023-01-11T14:00:50.338Z,1.30
2023-01-11T14:03:59.811Z,1.45
2023-01-11T14:07:19.808Z,2.17
2023-01-11T14:10:52.359Z,1.63
2023-01-11T14:14:13.735Z,1.50
2023-01-11T14:17:40.087Z,1.10
2023-01-11T14:21:05.946Z,0.93
2023-01-11T14:24:10.347Z,1.00
2023-01-11T14:27:34.958Z,1.00
2023-01-11T14:34:05.291Z,0.93
2023-01-11T14:37:35.140Z,0.77
2023-01-11T14:41:34.699Z,0.85
2023-01-11T14:44:47.478Z,0.77
2023-01-11T14:48:10.018Z,1.00
2023-01-11T14:51:33.168Z,1.50
2023-01-11T14:54:40.090Z,2.27
2023-01-11T14:58:01.613Z,1.80
2023-01-11T15:01:06.797Z,1.60
2023-01-11T15:04:20.793Z,2.03
2023-01-11T15:07:34.588Z,1.65
2023-01-11T15:10:36.610Z,1.92
2023-01-11T15:13:50.604Z,1.17
2023-01-11T15:17:17.852Z,1.38
2023-01-11T15:20:21.785Z,1.45
2023-01-11T15:23:24.537Z,1.52
2023-01-11T15:26:27.104Z,1.90
2023-01-11T15:29:35.590Z,1.75
2023-01-11T15:32:37.423Z,1.80
2023-01-11T15:35:39.151Z,1.88
2023-01-11T15:39:03.531Z,1.95
2023-01-11T15:42:17.450Z,1.52
2023-01-11T15:45:38.991Z,2.63
2023-01-11T15:49:14.709Z,2.53
2023-01-11T15:52:50.329Z,2.83
2023-01-11T15:56:19.075Z,2.03
2023-01-11T15:59:38.955Z,1.60
2023-01-11T16:02:55.614Z,1.38
2023-01-11T16:06:33.707Z,2.13
2023-01-11T16:10:02.804Z,3.25
2023-01-11T16:13:15.958Z,5.88
2023-01-11T16:16:31.528Z,5.22
2023-01-11T16:19:35.821Z,5.75
2023-01-11T16:22:37.451Z,4.80
2023-01-11T16:25:41.705Z,7.00
2023-01-11T16:28:48.847Z,4.53
2023-01-11T16:31:58.141Z,5.07
2023-01-11T16:35:01.928Z,4.70
2023-01-11T16:38:05.184Z,3.10
2023-01-11T16:41:08.806Z,2.37
2023-01-11T16:44:23.267Z,2.55
2023-01-11T16:50:28.405Z,5.80
2023-01-11T16:53:31.940Z,4.63
2023-01-11T16:56:35.410Z,4.35
2023-01-11T16:59:39.155Z,3.85
2023-01-11T17:02:43.241Z,2.38
2023-01-11T17:05:56.289Z,2.53
2023-01-11T17:08:59.878Z,1.75
2023-01-11T17:12:01.494Z,1.23
2023-01-11T17:15:18.711Z,1.33
2023-01-11T17:18:20.233Z,1.15
2023-01-11T17:21:26.318Z,1.42
2023-01-11T17:24:28.463Z,1.85
2023-01-11T17:27:35.631Z,1.33
2023-01-11T17:30:37.206Z,1.38
2023-01-11T17:33:38.769Z,2.83
2023-01-11T17:36:41.739Z,1.48
2023-01-11T17:39:51.836Z,2.60
2023-01-11T17:43:15.452Z,3.45
2023-01-11T17:46:20.126Z,3.05
2023-01-11T17:49:23.846Z,2.70
2023-01-11T17:52:26.943Z,3.28
2023-01-11T17:55:28.505Z,2.80
2023-01-11T17:58:33.542Z,2.97
2023-01-11T18:01:36.281Z,3.30
2023-01-11T18:04:37.951Z,2.92
2023-01-11T18:07:43.924Z,2.60
2023-01-11T18:10:53.495Z,2.50
2023-01-11T18:13:58.143Z,2.55
2023-01-11T18:17:03.557Z,2.92
2023-01-11T18:20:14.627Z,3.70
2023-01-11T18:23:20.102Z,3.55
2023-01-11T18:26:28.814Z,2.00
2023-01-11T18:29:36.361Z,2.10
2023-01-11T18:32:43.223Z,2.65
2023-01-11T18:35:47.178Z,2.45
2023-01-11T18:38:49.226Z,2.30
2023-01-11T18:42:09.387Z,3.05
2023-01-11T18:45:12.045Z,2.10
2023-01-11T18:48:15.406Z,2.97
2023-01-11T18:51:24.131Z,2.57
2023-01-11T18:54:25.733Z,2.05
2023-01-11T18:57:27.486Z,2.97
2023-01-11T19:00:29.138Z,3.20
2023-01-11T19:03:30.696Z,2.97
2023-01-11T19:06:32.312Z,3.00
2023-01-11T19:09:33.878Z,3.20
2023-01-11T19:12:35.701Z,2.70
2023-01-11T19:15:37.405Z,3.05
2023-01-11T19:18:38.926Z,2.67
2023-01-11T19:21:40.532Z,3.03
2023-01-11T19:24:42.172Z,2.60
2023-01-11T19:27:43.781Z,3.05
2023-01-11T19:30:45.589Z,3.03
2023-01-11T19:33:47.727Z,2.72
2023-01-11T19:36:50.536Z,3.45
2023-01-11T19:39:52.095Z,3.13
2023-01-11T19:42:53.847Z,3.10
2023-01-11T19:45:58.662Z,3.25
2023-01-11T19:49:00.341Z,2.95
2023-01-11T19:52:01.868Z,3.00
2023-01-11T19:55:06.609Z,3.50
2023-01-11T19:58:08.400Z,2.75
2023-01-11T20:01:13.276Z,3.38
2023-01-11T20:04:16.406Z,3.72
2023-01-11T20:07:17.995Z,3.07
2023-01-11T20:10:19.783Z,3.50
2023-01-11T20:13:21.455Z,3.35
2023-01-11T20:16:24.497Z,3.05
2023-01-11T20:19:26.186Z,2.88
2023-01-11T20:22:28.613Z,3.28
2023-01-11T20:25:30.272Z,3.15
2023-01-11T20:28:32.554Z,2.85
2023-01-11T20:31:35.644Z,3.13
2023-01-11T20:34:37.346Z,3.00
2023-01-11T20:37:38.906Z,2.95
2023-01-11T20:40:40.974Z,3.63
2023-01-11T20:43:42.592Z,3.33
2023-01-11T20:46:47.556Z,3.20
2023-01-11T20:49:49.534Z,3.42
2023-01-11T20:52:51.958Z,3.53
2023-01-11T20:55:53.613Z,2.92
2023-01-11T20:58:55.253Z,3.35
2023-01-11T21:01:56.822Z,2.90
2023-01-11T21:04:58.374Z,3.33
2023-01-11T21:07:59.934Z,2.92
2023-01-11T21:11:09.601Z,2.95
2023-01-11T21:14:14.116Z,2.70
2023-01-11T21:17:16.031Z,3.33
2023-01-11T21:20:17.743Z,2.28
2023-01-11T21:23:19.355Z,3.10
2023-01-11T21:26:21.070Z,2.90
2023-01-11T21:29:22.899Z,3.28
2023-01-11T21:32:24.502Z,2.78
2023-01-11T21:35:27.113Z,3.25
2023-01-11T21:38:30.884Z,3.03
2023-01-11T21:41:52.450Z,4.38
2023-01-11T21:44:53.981Z,3.13
2023-01-11T21:47:55.489Z,2.55
2023-01-11T21:50:57.383Z,2.65
2023-01-11T21:54:05.128Z,3.60
2023-01-11T21:57:07.231Z,2.65
2023-01-11T22:00:10.946Z,3.20
2023-01-11T22:03:15.270Z,2.85
2023-01-11T22:06:17.513Z,2.67
2023-01-11T22:09:20.082Z,3.00
2023-01-11T22:12:21.787Z,3.08
2023-01-11T22:15:23.437Z,2.80
2023-01-11T22:18:25.029Z,3.40
2023-01-11T22:21:27.108Z,3.25
2023-01-11T22:24:28.737Z,3.10
2023-01-11T22:27:30.355Z,3.38
2023-01-11T22:30:31.980Z,3.72
2023-01-11T22:33:33.559Z,3.20
2023-01-11T22:36:35.236Z,3.30
2023-01-11T22:39:40.787Z,3.88
2023-01-11T22:42:42.395Z,3.40
2023-01-11T22:45:56.554Z,3.10
2023-01-11T22:48:58.931Z,4.47
2023-01-11T22:52:00.567Z,4.05
2023-01-11T22:55:02.682Z,3.97
2023-01-11T22:58:04.265Z,4.20
2023-01-11T23:01:22.195Z,4.32
2023-01-11T23:04:23.936Z,3.65
2023-01-11T23:07:25.602Z,3.30
2023-01-11T23:10:27.232Z,4.75
2023-01-11T23:13:47.647Z,3.97
2023-01-11T23:16:50.385Z,4.13
2023-01-11T23:19:52.075Z,4.18
2023-01-11T23:22:53.675Z,4.18
2023-01-11T23:25:55.321Z,3.60
2023-01-11T23:28:56.913Z,4.20
2023-01-11T23:31:58.591Z,4.47
2023-01-11T23:35:09.028Z,4.03
2023-01-11T23:38:10.546Z,4.00
2023-01-11T23:41:33.084Z,3.90
2023-01-11T23:44:34.970Z,3.92
2023-01-11T23:47:36.569Z,4.30
2023-01-11T23:50:38.117Z,3.00
2023-01-11T23:53:39.731Z,4.10
2023-01-11T23:56:41.348Z,3.70
2023-01-11T23:59:43.419Z,3.58
